sensor_id;sensor_type;location;lat;lon;timestamp;pressure;altitude;pressure_sealevel;temperature;humidity
5462;BME280;912;48.130;11.348;2022-07-04T00:00:25;95587.25;;;19.24;100.00
5462;BME280;912;48.130;11.348;2022-07-04T00:05:42;95595.63;;;19.12;100.00
5462;BME280;912;48.130;11.348;2022-07-04T00:08:26;95599.95;;;19.20;100.00
5462;BME280;912;48.130;11.348;2022-07-04T00:11:08;95599.02;;;19.30;100.00
5462;BME280;912;48.130;11.348;2022-07-04T00:13:50;95599.88;;;19.33;100.00
5462;BME280;912;48.130;11.348;2022-07-04T00:16:32;95596.20;;;19.31;100.00
5462;BME280;912;48.130;11.348;2022-07-04T00:19:17;95583.55;;;19.25;100.00
5462;BME280;912;48.130;11.348;2022-07-04T00:21:58;95577.14;;;19.35;100.00
5462;BME280;912;48.130;11.348;2022-07-04T00:24:40;95574.39;;;19.29;100.00
5462;BME280;912;48.130;11.348;2022-07-04T00:29:56;95566.64;;;19.08;100.00
5462;BME280;912;48.130;11.348;2022-07-04T00:32:38;95545.16;;;19.05;100.00
5462;BME280;912;48.130;11.348;2022-07-04T00:35:51;95517.18;;;18.90;100.00
5462;BME280;912;48.130;11.348;2022-07-04T00:38:32;95511.94;;;18.88;100.00
5462;BME280;912;48.130;11.348;2022-07-04T00:41:14;95566.55;;;18.91;100.00
5462;BME280;912;48.130;11.348;2022-07-04T00:44:04;95546.30;;;18.69;100.00
5462;BME280;912;48.130;11.348;2022-07-04T00:46:45;95574.98;;;18.75;100.00
5462;BME280;912;48.130;11.348;2022-07-04T00:49:26;95575.41;;;18.78;100.00
5462;BME280;912;48.130;11.348;2022-07-04T00:52:08;95566.25;;;18.71;100.00
5462;BME280;912;48.130;11.348;2022-07-04T00:54:50;95558.63;;;18.74;100.00
5462;BME280;912;48.130;11.348;2022-07-04T00:57:32;95547.22;;;18.82;100.00
5462;BME280;912;48.130;11.348;2022-07-04T01:00:14;95547.02;;;18.84;100.00
5462;BME280;912;48.130;11.348;2022-07-04T01:02:56;95553.23;;;18.82;100.00
5462;BME280;912;48.130;11.348;2022-07-04T01:05:38;95560.92;;;18.66;100.00
5462;BME280;912;48.130;11.348;2022-07-04T01:08:19;95563.28;;;18.71;100.00
5462;BME280;912;48.130;11.348;2022-07-04T01:11:01;95559.73;;;18.71;100.00
5462;BME280;912;48.130;11.348;2022-07-04T01:13:46;95561.31;;;18.85;100.00
5462;BME280;912;48.130;11.348;2022-07-04T01:16:28;95568.13;;;18.95;100.00
5462;BME280;912;48.130;11.348;2022-07-04T01:19:09;95569.03;;;18.96;100.00
5462;BME280;912;48.130;11.348;2022-07-04T01:21:51;95571.45;;;19.01;100.00
5462;BME280;912;48.130;11.348;2022-07-04T01:24:33;95565.81;;;19.06;100.00
5462;BME280;912;48.130;11.348;2022-07-04T01:27:15;95573.90;;;19.08;100.00
5462;BME280;912;48.130;11.348;2022-07-04T01:29:56;95564.29;;;19.06;100.00
5462;BME280;912;48.130;11.348;2022-07-04T01:32:41;95555.22;;;19.00;100.00
5462;BME280;912;48.130;11.348;2022-07-04T01:35:50;95549.36;;;18.99;100.00
5462;BME280;912;48.130;11.348;2022-07-04T01:38:32;95542.24;;;18.95;100.00
5462;BME280;912;48.130;11.348;2022-07-04T01:41:14;95536.34;;;18.90;100.00
5462;BME280;912;48.130;11.348;2022-07-04T01:44:02;95530.86;;;18.83;100.00
5462;BME280;912;48.130;11.348;2022-07-04T01:46:50;95525.38;;;18.92;100.00
5462;BME280;912;48.130;11.348;2022-07-04T01:49:31;95521.95;;;18.86;100.00
5462;BME280;912;48.130;11.348;2022-07-04T01:52:13;95515.03;;;18.82;100.00
5462;BME280;912;48.130;11.348;2022-07-04T01:54:55;95512.52;;;18.75;100.00
5462;BME280;912;48.130;11.348;2022-07-04T01:57:37;95518.66;;;18.82;100.00
5462;BME280;912;48.130;11.348;2022-07-04T02:00:22;95515.20;;;18.83;100.00
5462;BME280;912;48.130;11.348;2022-07-04T02:03:09;95507.16;;;18.76;100.00
5462;BME280;912;48.130;11.348;2022-07-04T02:05:50;95505.09;;;18.68;100.00
5462;BME280;912;48.130;11.348;2022-07-04T02:08:32;95511.82;;;18.56;100.00
5462;BME280;912;48.130;11.348;2022-07-04T02:11:19;95505.81;;;18.58;100.00
5462;BME280;912;48.130;11.348;2022-07-04T02:14:01;95502.16;;;18.63;100.00
5462;BME280;912;48.130;11.348;2022-07-04T02:19:20;95520.75;;;18.97;100.00
5462;BME280;912;48.130;11.348;2022-07-04T02:22:02;95522.11;;;19.04;100.00
5462;BME280;912;48.130;11.348;2022-07-04T02:24:44;95524.02;;;19.13;100.00
5462;BME280;912;48.130;11.348;2022-07-04T02:27:26;95514.61;;;19.00;100.00
5462;BME280;912;48.130;11.348;2022-07-04T02:30:08;95506.67;;;18.91;100.00
5462;BME280;912;48.130;11.348;2022-07-04T02:32:50;95504.07;;;18.88;100.00
5462;BME280;912;48.130;11.348;2022-07-04T02:35:51;95511.65;;;18.68;100.00
5462;BME280;912;48.130;11.348;2022-07-04T02:38:32;95518.17;;;18.59;100.00
5462;BME280;912;48.130;11.348;2022-07-04T02:41:14;95524.28;;;18.48;100.00
5462;BME280;912;48.130;11.348;2022-07-04T02:43:56;95523.95;;;18.47;100.00
5462;BME280;912;48.130;11.348;2022-07-04T02:46:38;95526.00;;;18.39;100.00
5462;BME280;912;48.130;11.348;2022-07-04T02:49:20;95525.34;;;18.38;100.00
5462;BME280;912;48.130;11.348;2022-07-04T02:52:01;95536.83;;;18.25;100.00
5462;BME280;912;48.130;11.348;2022-07-04T02:54:43;95536.33;;;18.18;100.00
5462;BME280;912;48.130;11.348;2022-07-04T02:57:25;95546.06;;;18.11;100.00
5462;BME280;912;48.130;11.348;2022-07-04T03:00:11;95551.09;;;18.02;100.00
5462;BME280;912;48.130;11.348;2022-07-04T03:02:53;95547.57;;;18.09;100.00
5462;BME280;912;48.130;11.348;2022-07-04T03:05:35;95548.56;;;18.11;100.00
5462;BME280;912;48.130;11.348;2022-07-04T03:08:17;95542.27;;;18.10;100.00
5462;BME280;912;48.130;11.348;2022-07-04T03:10:58;95534.36;;;18.10;100.00
5462;BME280;912;48.130;11.348;2022-07-04T03:13:40;95532.52;;;17.97;100.00
5462;BME280;912;48.130;11.348;2022-07-04T03:16:22;95529.80;;;17.99;100.00
5462;BME280;912;48.130;11.348;2022-07-04T03:19:04;95529.14;;;17.99;100.00
5462;BME280;912;48.130;11.348;2022-07-04T03:21:45;95541.66;;;17.99;100.00
5462;BME280;912;48.130;11.348;2022-07-04T03:24:27;95545.61;;;18.00;100.00
5462;BME280;912;48.130;11.348;2022-07-04T03:27:09;95546.47;;;18.11;100.00
5462;BME280;912;48.130;11.348;2022-07-04T03:29:51;95547.34;;;18.12;100.00
5462;BME280;912;48.130;11.348;2022-07-04T03:32:32;95548.17;;;18.03;100.00
5462;BME280;912;48.130;11.348;2022-07-04T03:35:50;95548.64;;;17.96;100.00
5462;BME280;912;48.130;11.348;2022-07-04T03:38:32;95545.44;;;17.98;100.00
5462;BME280;912;48.130;11.348;2022-07-04T03:41:17;95554.76;;;18.15;100.00
5462;BME280;912;48.130;11.348;2022-07-04T03:43:59;95560.02;;;18.26;100.00
5462;BME280;912;48.130;11.348;2022-07-04T03:46:46;95564.47;;;18.39;100.00
5462;BME280;912;48.130;11.348;2022-07-04T03:49:31;95570.63;;;18.51;100.00
5462;BME280;912;48.130;11.348;2022-07-04T03:52:12;95566.81;;;18.56;100.00
5462;BME280;912;48.130;11.348;2022-07-04T03:54:54;95576.99;;;18.44;100.00
5462;BME280;912;48.130;11.348;2022-07-04T03:57:39;95585.56;;;18.59;100.00
5462;BME280;912;48.130;11.348;2022-07-04T04:00:24;95591.00;;;18.67;100.00
5462;BME280;912;48.130;11.348;2022-07-04T04:05:44;95589.00;;;18.74;100.00
5462;BME280;912;48.130;11.348;2022-07-04T04:08:25;95593.38;;;18.54;100.00
5462;BME280;912;48.130;11.348;2022-07-04T04:11:07;95591.50;;;18.70;100.00
5462;BME280;912;48.130;11.348;2022-07-04T04:13:49;95598.61;;;18.85;100.00
5462;BME280;912;48.130;11.348;2022-07-04T04:16:30;95611.03;;;18.97;100.00
5462;BME280;912;48.130;11.348;2022-07-04T04:19:12;95606.35;;;18.81;100.00
5462;BME280;912;48.130;11.348;2022-07-04T04:21:57;95606.68;;;18.75;100.00
5462;BME280;912;48.130;11.348;2022-07-04T04:24:39;95609.86;;;18.77;100.00
5462;BME280;912;48.130;11.348;2022-07-04T04:27:24;95620.02;;;19.01;100.00
5462;BME280;912;48.130;11.348;2022-07-04T04:30:07;95621.02;;;19.05;100.00
5462;BME280;912;48.130;11.348;2022-07-04T04:32:48;95629.89;;;19.11;100.00
5462;BME280;912;48.130;11.348;2022-07-04T04:35:51;95628.39;;;19.00;100.00
5462;BME280;912;48.130;11.348;2022-07-04T04:38:38;95622.22;;;19.08;100.00
5462;BME280;912;48.130;11.348;2022-07-04T04:41:22;95625.52;;;19.36;100.00
5462;BME280;912;48.130;11.348;2022-07-04T04:44:04;95629.85;;;19.51;100.00
5462;BME280;912;48.130;11.348;2022-07-04T04:46:46;95634.14;;;19.74;100.00
5462;BME280;912;48.130;11.348;2022-07-04T04:49:33;95644.88;;;19.33;100.00
5462;BME280;912;48.130;11.348;2022-07-04T04:52:15;95651.45;;;19.10;100.00
5462;BME280;912;48.130;11.348;2022-07-04T04:54:57;95659.39;;;19.00;100.00
5462;BME280;912;48.130;11.348;2022-07-04T04:57:41;95667.02;;;18.96;100.00
5462;BME280;912;48.130;11.348;2022-07-04T05:00:29;95678.94;;;18.85;100.00
5462;BME280;912;48.130;11.348;2022-07-04T05:03:11;95686.95;;;18.80;100.00
5462;BME280;912;48.130;11.348;2022-07-04T05:05:59;95691.59;;;18.63;100.00
5462;BME280;912;48.130;11.348;2022-07-04T05:08:46;95694.06;;;18.71;100.00
5462;BME280;912;48.130;11.348;2022-07-04T05:11:34;95703.30;;;18.65;100.00
5462;BME280;912;48.130;11.348;2022-07-04T05:14:16;95697.84;;;18.55;100.00
5462;BME280;912;48.130;11.348;2022-07-04T05:16:58;95695.63;;;18.60;100.00
5462;BME280;912;48.130;11.348;2022-07-04T05:19:40;95698.56;;;18.60;100.00
5462;BME280;912;48.130;11.348;2022-07-04T05:24:55;95700.08;;;18.70;100.00
5462;BME280;912;48.130;11.348;2022-07-04T05:27:43;95698.45;;;18.75;100.00
5462;BME280;912;48.130;11.348;2022-07-04T05:30:31;95693.40;;;18.70;100.00
5462;BME280;912;48.130;11.348;2022-07-04T05:35:53;95693.08;;;18.73;100.00
5462;BME280;912;48.130;11.348;2022-07-04T05:38:35;95689.42;;;18.78;100.00
5462;BME280;912;48.130;11.348;2022-07-04T05:41:17;95689.88;;;18.91;100.00
5462;BME280;912;48.130;11.348;2022-07-04T05:44:04;95692.80;;;19.05;100.00
5462;BME280;912;48.130;11.348;2022-07-04T05:46:52;95708.69;;;19.11;100.00
5462;BME280;912;48.130;11.348;2022-07-04T05:49:36;95713.78;;;19.07;100.00
5462;BME280;912;48.130;11.348;2022-07-04T05:52:23;95716.36;;;19.12;100.00
5462;BME280;912;48.130;11.348;2022-07-04T05:55:08;95719.53;;;19.00;100.00
5462;BME280;912;48.130;11.348;2022-07-04T05:57:54;95710.34;;;18.96;100.00
5462;BME280;912;48.130;11.348;2022-07-04T06:00:36;95714.30;;;19.02;100.00
5462;BME280;912;48.130;11.348;2022-07-04T06:03:18;95710.73;;;19.04;100.00
5462;BME280;912;48.130;11.348;2022-07-04T06:05:59;95714.34;;;19.01;100.00
5462;BME280;912;48.130;11.348;2022-07-04T06:08:41;95709.07;;;19.03;100.00
5462;BME280;912;48.130;11.348;2022-07-04T06:11:23;95722.95;;;19.15;100.00
5462;BME280;912;48.130;11.348;2022-07-04T06:14:05;95730.88;;;19.20;100.00
5462;BME280;912;48.130;11.348;2022-07-04T06:16:49;95731.42;;;19.25;100.00
5462;BME280;912;48.130;11.348;2022-07-04T06:19:31;95732.55;;;19.30;100.00
5462;BME280;912;48.130;11.348;2022-07-04T06:22:13;95730.63;;;19.32;100.00
5462;BME280;912;48.130;11.348;2022-07-04T06:24:55;95731.50;;;19.44;100.00
5462;BME280;912;48.130;11.348;2022-07-04T06:27:37;95727.72;;;19.50;100.00
5462;BME280;912;48.130;11.348;2022-07-04T06:30:20;95726.96;;;19.58;100.00
5462;BME280;912;48.130;11.348;2022-07-04T06:35:56;95725.73;;;19.50;100.00
5462;BME280;912;48.130;11.348;2022-07-04T06:38:39;95722.59;;;19.53;100.00
5462;BME280;912;48.130;11.348;2022-07-04T06:41:20;95725.23;;;19.61;100.00
5462;BME280;912;48.130;11.348;2022-07-04T06:44:02;95730.59;;;19.71;100.00
5462;BME280;912;48.130;11.348;2022-07-04T06:46:50;95724.45;;;19.59;100.00
5462;BME280;912;48.130;11.348;2022-07-04T06:49:38;95730.38;;;19.58;100.00
5462;BME280;912;48.130;11.348;2022-07-04T06:52:19;95739.71;;;19.59;100.00
5462;BME280;912;48.130;11.348;2022-07-04T06:55:01;95754.03;;;19.45;100.00
5462;BME280;912;48.130;11.348;2022-07-04T06:57:43;95751.78;;;19.33;100.00
5462;BME280;912;48.130;11.348;2022-07-04T07:00:28;95742.57;;;19.27;100.00
5462;BME280;912;48.130;11.348;2022-07-04T07:03:09;95747.57;;;19.16;100.00
5462;BME280;912;48.130;11.348;2022-07-04T07:05:51;95751.39;;;18.94;100.00
5462;BME280;912;48.130;11.348;2022-07-04T07:08:36;95753.11;;;18.82;100.00
5462;BME280;912;48.130;11.348;2022-07-04T07:11:17;95748.15;;;18.68;100.00
5462;BME280;912;48.130;11.348;2022-07-04T07:14:01;95750.77;;;18.51;100.00
5462;BME280;912;48.130;11.348;2022-07-04T07:16:43;95743.42;;;18.44;100.00
5462;BME280;912;48.130;11.348;2022-07-04T07:19:31;95743.33;;;18.48;100.00
5462;BME280;912;48.130;11.348;2022-07-04T07:22:12;95744.41;;;18.57;100.00
5462;BME280;912;48.130;11.348;2022-07-04T07:24:54;95750.84;;;18.61;100.00
5462;BME280;912;48.130;11.348;2022-07-04T07:27:39;95745.43;;;18.79;100.00
5462;BME280;912;48.130;11.348;2022-07-04T07:30:20;95739.13;;;19.02;100.00
5462;BME280;912;48.130;11.348;2022-07-04T07:35:50;95734.71;;;19.14;100.00
5462;BME280;912;48.130;11.348;2022-07-04T07:38:32;95732.02;;;19.31;100.00
5462;BME280;912;48.130;11.348;2022-07-04T07:41:16;95717.94;;;19.49;100.00
5462;BME280;912;48.130;11.348;2022-07-04T07:44:04;95708.92;;;19.72;100.00
5462;BME280;912;48.130;11.348;2022-07-04T07:46:52;95710.25;;;19.89;100.00
5462;BME280;912;48.130;11.348;2022-07-04T07:49:39;95710.87;;;20.11;100.00
5462;BME280;912;48.130;11.348;2022-07-04T07:52:27;95720.81;;;20.34;100.00
5462;BME280;912;48.130;11.348;2022-07-04T07:55:11;95713.44;;;20.93;100.00
5462;BME280;912;48.130;11.348;2022-07-04T07:57:53;95718.16;;;21.15;100.00
5462;BME280;912;48.130;11.348;2022-07-04T08:00:38;95722.94;;;21.24;100.00
5462;BME280;912;48.130;11.348;2022-07-04T08:03:19;95723.44;;;21.41;100.00
5462;BME280;912;48.130;11.348;2022-07-04T08:06:07;95722.80;;;21.56;100.00
5462;BME280;912;48.130;11.348;2022-07-04T08:08:48;95721.31;;;21.44;100.00
5462;BME280;912;48.130;11.348;2022-07-04T08:11:30;95710.34;;;21.44;100.00
5462;BME280;912;48.130;11.348;2022-07-04T08:14:12;95704.94;;;21.69;100.00
5462;BME280;912;48.130;11.348;2022-07-04T08:16:54;95703.97;;;21.86;100.00
5462;BME280;912;48.130;11.348;2022-07-04T08:19:35;95698.23;;;21.74;100.00
5462;BME280;912;48.130;11.348;2022-07-04T08:22:17;95696.55;;;21.68;100.00
5462;BME280;912;48.130;11.348;2022-07-04T08:25:02;95695.05;;;21.75;100.00
5462;BME280;912;48.130;11.348;2022-07-04T08:27:43;95689.67;;;21.73;100.00
5462;BME280;912;48.130;11.348;2022-07-04T08:30:25;95691.09;;;22.23;100.00
5462;BME280;912;48.130;11.348;2022-07-04T08:38:27;95689.42;;;22.74;100.00
5462;BME280;912;48.130;11.348;2022-07-04T08:41:09;95691.59;;;22.76;100.00
5462;BME280;912;48.130;11.348;2022-07-04T08:43:51;95680.11;;;22.79;100.00
5462;BME280;912;48.130;11.348;2022-07-04T08:46:32;95676.64;;;23.11;100.00
5462;BME280;912;48.130;11.348;2022-07-04T08:49:20;95677.52;;;23.20;100.00
5462;BME280;912;48.130;11.348;2022-07-04T08:52:04;95682.53;;;23.03;100.00
5462;BME280;912;48.130;11.348;2022-07-04T08:56:19;95678.80;;;23.51;100.00
5462;BME280;912;48.130;11.348;2022-07-04T08:59:06;95671.69;;;24.29;100.00
5462;BME280;912;48.130;11.348;2022-07-04T09:01:48;95681.98;;;24.57;100.00
5462;BME280;912;48.130;11.348;2022-07-04T09:04:29;95682.48;;;25.03;100.00
5462;BME280;912;48.130;11.348;2022-07-04T09:07:11;95671.43;;;25.25;100.00
5462;BME280;912;48.130;11.348;2022-07-04T09:09:59;95675.95;;;25.09;100.00
5462;BME280;912;48.130;11.348;2022-07-04T09:12:46;95679.99;;;25.16;100.00
5462;BME280;912;48.130;11.348;2022-07-04T09:15:28;95679.75;;;25.00;100.00
5462;BME280;912;48.130;11.348;2022-07-04T09:18:28;95683.44;;;25.49;100.00
5462;BME280;912;48.130;11.348;2022-07-04T09:21:09;95692.42;;;25.77;98.71
5462;BME280;912;48.130;11.348;2022-07-04T09:23:51;95697.30;;;25.85;100.00
5462;BME280;912;48.130;11.348;2022-07-04T09:26:32;95686.77;;;26.11;100.00
5462;BME280;912;48.130;11.348;2022-07-04T09:29:15;95684.28;;;26.14;96.93
5462;BME280;912;48.130;11.348;2022-07-04T09:31:57;95687.35;;;27.31;92.37
5462;BME280;912;48.130;11.348;2022-07-04T09:35:51;95690.64;;;27.81;83.62
5462;BME280;912;48.130;11.348;2022-07-04T09:38:33;95686.13;;;29.03;85.02
5462;BME280;912;48.130;11.348;2022-07-04T09:41:14;95699.84;;;28.04;85.45
5462;BME280;912;48.130;11.348;2022-07-04T09:44:04;95695.57;;;27.66;89.63
5462;BME280;912;48.130;11.348;2022-07-04T09:46:45;95690.28;;;28.53;84.01
5462;BME280;912;48.130;11.348;2022-07-04T09:49:27;95686.73;;;29.24;82.69
5462;BME280;912;48.130;11.348;2022-07-04T09:52:09;95686.89;;;30.05;79.10
5462;BME280;912;48.130;11.348;2022-07-04T09:54:51;95680.16;;;29.43;75.86
5462;BME280;912;48.130;11.348;2022-07-04T09:57:33;95685.30;;;29.46;79.05
5462;BME280;912;48.130;11.348;2022-07-04T10:02:53;95687.48;;;28.81;78.12
5462;BME280;912;48.130;11.348;2022-07-04T10:05:34;95693.80;;;27.58;80.61
5462;BME280;912;48.130;11.348;2022-07-04T10:08:16;95688.77;;;27.50;86.14
5462;BME280;912;48.130;11.348;2022-07-04T10:10:59;95685.30;;;27.16;88.65
5462;BME280;912;48.130;11.348;2022-07-04T10:13:40;95686.44;;;27.40;82.50
5462;BME280;912;48.130;11.348;2022-07-04T10:16:29;95687.89;;;27.49;84.87
5462;BME280;912;48.130;11.348;2022-07-04T10:19:16;95684.70;;;26.61;87.34
5462;BME280;912;48.130;11.348;2022-07-04T10:21:57;95694.52;;;26.13;94.13
5462;BME280;912;48.130;11.348;2022-07-04T10:24:39;95688.95;;;26.46;91.05
5462;BME280;912;48.130;11.348;2022-07-04T10:27:21;95695.73;;;26.58;89.90
5462;BME280;912;48.130;11.348;2022-07-04T10:30:04;95697.38;;;26.59;90.45
5462;BME280;912;48.130;11.348;2022-07-04T10:32:46;95701.84;;;26.30;91.38
5462;BME280;912;48.130;11.348;2022-07-04T10:36:04;95698.13;;;26.46;91.46
5462;BME280;912;48.130;11.348;2022-07-04T10:38:55;95695.48;;;26.88;89.29
5462;BME280;912;48.130;11.348;2022-07-04T10:41:55;95695.75;;;26.72;87.50
5462;BME280;912;48.130;11.348;2022-07-04T10:44:24;95692.72;;;27.15;87.05
5462;BME280;912;48.130;11.348;2022-07-04T10:47:06;95691.30;;;26.58;89.04
5462;BME280;912;48.130;11.348;2022-07-04T10:49:48;95693.16;;;26.69;91.73
5462;BME280;912;48.130;11.348;2022-07-04T10:52:35;95696.15;;;27.12;85.16
5462;BME280;912;48.130;11.348;2022-07-04T10:55:23;95696.17;;;27.20;89.19
5462;BME280;912;48.130;11.348;2022-07-04T10:58:04;95690.78;;;27.39;88.41
5462;BME280;912;48.130;11.348;2022-07-04T11:03:47;95694.48;;;27.37;87.84
5462;BME280;912;48.130;11.348;2022-07-04T11:09:24;95685.34;;;26.50;88.34
5462;BME280;912;48.130;11.348;2022-07-04T11:12:05;95678.23;;;26.50;86.39
5462;BME280;912;48.130;11.348;2022-07-04T11:14:49;95675.06;;;27.23;86.35
5462;BME280;912;48.130;11.348;2022-07-04T11:17:36;95667.16;;;28.06;84.27
5462;BME280;912;48.130;11.348;2022-07-04T11:20:12;95662.18;;;29.14;79.47
5462;BME280;912;48.130;11.348;2022-07-04T11:23:05;95664.78;;;29.16;75.09
5462;BME280;912;48.130;11.348;2022-07-04T11:25:47;95665.03;;;28.98;74.93
5462;BME280;912;48.130;11.348;2022-07-04T11:28:30;95666.71;;;28.10;80.66
5462;BME280;912;48.130;11.348;2022-07-04T11:31:11;95662.63;;;27.73;80.72
5462;BME280;912;48.130;11.348;2022-07-04T11:36:03;95650.20;;;28.63;78.77
5462;BME280;912;48.130;11.348;2022-07-04T11:38:53;95647.05;;;30.00;74.14
5462;BME280;912;48.130;11.348;2022-07-04T11:41:40;95644.07;;;29.71;73.72
5462;BME280;912;48.130;11.348;2022-07-04T11:44:28;95640.02;;;29.25;72.54
5462;BME280;912;48.130;11.348;2022-07-04T11:47:17;95637.53;;;30.69;70.57
5462;BME280;912;48.130;11.348;2022-07-04T11:50:00;95635.46;;;30.88;68.75
5462;BME280;912;48.130;11.348;2022-07-04T11:52:41;95630.20;;;30.67;66.48
5462;BME280;912;48.130;11.348;2022-07-04T11:55:22;95635.52;;;29.87;66.70
5462;BME280;912;48.130;11.348;2022-07-04T11:58:04;95636.38;;;28.85;72.07
5462;BME280;912;48.130;11.348;2022-07-04T12:00:46;95639.31;;;28.81;73.83
5462;BME280;912;48.130;11.348;2022-07-04T12:03:27;95639.84;;;29.76;70.61
5462;BME280;912;48.130;11.348;2022-07-04T12:06:09;95636.53;;;30.09;68.76
5462;BME280;912;48.130;11.348;2022-07-04T12:08:51;95631.94;;;31.67;62.49
5462;BME280;912;48.130;11.348;2022-07-04T12:11:52;95627.73;;;32.72;60.03
5462;BME280;912;48.130;11.348;2022-07-04T12:14:33;95623.95;;;33.54;59.24
5462;BME280;912;48.130;11.348;2022-07-04T12:17:16;95626.52;;;31.54;60.70
5462;BME280;912;48.130;11.348;2022-07-04T12:19:58;95615.39;;;31.14;62.49
5462;BME280;912;48.130;11.348;2022-07-04T12:22:42;95611.75;;;31.51;63.79
5462;BME280;912;48.130;11.348;2022-07-04T12:25:29;95610.34;;;31.28;63.73
5462;BME280;912;48.130;11.348;2022-07-04T12:28:10;95603.69;;;31.75;61.88
5462;BME280;912;48.130;11.348;2022-07-04T12:30:54;95594.95;;;33.79;59.08
5462;BME280;912;48.130;11.348;2022-07-04T12:38:55;95577.99;;;34.32;59.56
5462;BME280;912;48.130;11.348;2022-07-04T12:41:39;95574.88;;;34.11;58.51
5462;BME280;912;48.130;11.348;2022-07-04T12:44:21;95566.98;;;34.32;55.63
5462;BME280;912;48.130;11.348;2022-07-04T12:47:03;95568.64;;;33.58;54.74
5462;BME280;912;48.130;11.348;2022-07-04T12:49:45;95570.16;;;33.94;54.90
5462;BME280;912;48.130;11.348;2022-07-04T12:52:27;95568.48;;;33.25;54.11
5462;BME280;912;48.130;11.348;2022-07-04T12:55:11;95567.52;;;32.61;55.76
5462;BME280;912;48.130;11.348;2022-07-04T12:57:54;95560.30;;;32.88;56.76
5462;BME280;912;48.130;11.348;2022-07-04T13:00:37;95556.45;;;32.88;55.31
5462;BME280;912;48.130;11.348;2022-07-04T13:03:18;95549.94;;;33.56;56.66
5462;BME280;912;48.130;11.348;2022-07-04T13:06:00;95547.58;;;34.86;51.48
5462;BME280;912;48.130;11.348;2022-07-04T13:08:42;95546.34;;;35.92;51.72
5462;BME280;912;48.130;11.348;2022-07-04T13:11:25;95541.55;;;35.26;51.29
5462;BME280;912;48.130;11.348;2022-07-04T13:14:11;95531.82;;;37.26;47.62
5462;BME280;912;48.130;11.348;2022-07-04T13:16:56;95532.23;;;37.51;48.28
5462;BME280;912;48.130;11.348;2022-07-04T13:19:38;95528.04;;;38.20;47.37
5462;BME280;912;48.130;11.348;2022-07-04T13:22:21;95530.67;;;37.54;44.87
5462;BME280;912;48.130;11.348;2022-07-04T13:25:04;95529.41;;;35.14;47.47
5462;BME280;912;48.130;11.348;2022-07-04T13:27:53;95516.09;;;37.20;47.34
5462;BME280;912;48.130;11.348;2022-07-04T13:30:41;95524.35;;;36.40;49.04
5462;BME280;912;48.130;11.348;2022-07-04T13:35:55;95526.67;;;33.29;52.77
5462;BME280;912;48.130;11.348;2022-07-04T13:38:45;95519.87;;;32.85;57.13
5462;BME280;912;48.130;11.348;2022-07-04T13:41:27;95520.60;;;32.38;56.39
5462;BME280;912;48.130;11.348;2022-07-04T13:44:09;95517.34;;;32.90;55.91
5462;BME280;912;48.130;11.348;2022-07-04T13:46:53;95515.90;;;32.65;54.31
5462;BME280;912;48.130;11.348;2022-07-04T13:49:35;95511.01;;;32.60;54.05
5462;BME280;912;48.130;11.348;2022-07-04T13:52:17;95505.42;;;33.05;52.58
5462;BME280;912;48.130;11.348;2022-07-04T13:54:58;95507.31;;;33.24;51.74
5462;BME280;912;48.130;11.348;2022-07-04T13:57:40;95509.70;;;32.70;53.23
5462;BME280;912;48.130;11.348;2022-07-04T14:00:22;95509.11;;;33.26;54.38
5462;BME280;912;48.130;11.348;2022-07-04T14:03:06;95499.28;;;32.80;55.24
5462;BME280;912;48.130;11.348;2022-07-04T14:05:54;95493.74;;;32.79;55.95
5462;BME280;912;48.130;11.348;2022-07-04T14:08:35;95498.04;;;32.74;52.58
5462;BME280;912;48.130;11.348;2022-07-04T14:11:17;95497.12;;;34.22;48.04
5462;BME280;912;48.130;11.348;2022-07-04T14:13:59;95498.72;;;35.58;46.77
5462;BME280;912;48.130;11.348;2022-07-04T14:16:41;95499.11;;;34.81;47.63
5462;BME280;912;48.130;11.348;2022-07-04T14:21:28;95497.95;;;36.25;46.46
5462;BME280;912;48.130;11.348;2022-07-04T14:24:10;95493.50;;;37.04;46.64
5462;BME280;912;48.130;11.348;2022-07-04T14:26:53;95501.70;;;33.49;49.93
5462;BME280;912;48.130;11.348;2022-07-04T14:29:35;95499.50;;;31.75;52.80
5462;BME280;912;48.130;11.348;2022-07-04T14:32:17;95499.44;;;30.14;56.54
5462;BME280;912;48.130;11.348;2022-07-04T14:35:53;95495.59;;;30.75;55.58
5462;BME280;912;48.130;11.348;2022-07-04T14:38:40;95493.68;;;31.73;53.48
5462;BME280;912;48.130;11.348;2022-07-04T14:41:22;95496.11;;;30.42;55.89
5462;BME280;912;48.130;11.348;2022-07-04T14:44:04;95481.02;;;29.48;63.48
5462;BME280;912;48.130;11.348;2022-07-04T14:46:47;95479.34;;;30.58;57.91
5462;BME280;912;48.130;11.348;2022-07-04T14:49:29;95483.48;;;30.84;55.45
5462;BME280;912;48.130;11.348;2022-07-04T14:52:14;95470.88;;;32.08;53.96
5462;BME280;912;48.130;11.348;2022-07-04T14:57:30;95470.59;;;32.55;56.76
5462;BME280;912;48.130;11.348;2022-07-04T15:00:12;95470.41;;;30.78;60.07
5462;BME280;912;48.130;11.348;2022-07-04T15:02:58;95471.42;;;30.62;62.96
5462;BME280;912;48.130;11.348;2022-07-04T15:05:45;95464.92;;;31.14;60.79
5462;BME280;912;48.130;11.348;2022-07-04T15:08:29;95455.30;;;32.97;58.00
5462;BME280;912;48.130;11.348;2022-07-04T15:11:13;95449.54;;;36.20;51.30
5462;BME280;912;48.130;11.348;2022-07-04T15:14:01;95442.12;;;36.80;48.16
5462;BME280;912;48.130;11.348;2022-07-04T15:16:42;95442.45;;;37.76;45.36
5462;BME280;912;48.130;11.348;2022-07-04T15:19:30;95433.89;;;36.88;50.26
5462;BME280;912;48.130;11.348;2022-07-04T15:22:12;95428.94;;;37.09;45.46
5462;BME280;912;48.130;11.348;2022-07-04T15:24:59;95433.16;;;35.77;47.06
5462;BME280;912;48.130;11.348;2022-07-04T15:27:41;95439.71;;;35.31;48.09
5462;BME280;912;48.130;11.348;2022-07-04T15:30:23;95437.38;;;34.53;48.55
5462;BME280;912;48.130;11.348;2022-07-04T15:35:53;95438.45;;;34.73;51.74
5462;BME280;912;48.130;11.348;2022-07-04T15:38:40;95446.38;;;34.78;48.98